Flight Track Log - Related Links

Times and Time Zones

All times are in EDT time to prevent confusion due to time zone crossing. See the C-GDBS flight status page for this flight to view local times or setup timezone preferences in your user account.

Time Position Orientation Groundspeed Altitude Reporting Facility
EDT Latitude Longitude Course Direction KTS MPH feet Rate Location/Type
Wed 06:15:32 AM 43.8833 -79.3833 324° Northwest 130 150 1,300  Level Toronto Center
Wed 06:16:32 AM 43.9000 -79.4000 324° Northwest 130 150 2,100 750 Climbing Toronto Center
Wed 06:17:32 AM 43.9500 -79.4167 347° North 140 161 2,800 450 Climbing Toronto Center
Wed 06:18:32 AM 43.9667 -79.4667 295° West 140 161 3,000 100 Climbing Toronto Center
Wed 06:19:32 AM 43.9667 -79.5333 270° West 140 161 3,000 100 Level Toronto Center
Wed 06:20:32 AM 43.9667 -79.5833 270° West 140 161 3,200 300 Climbing Toronto Center
Wed 06:21:32 AM 43.9667 -79.6333 270° West 130 150 3,600 400 Climbing Toronto Center
Wed 06:22:32 AM 43.9500 -79.6833 245° Southwest 120 138 4,000 200 Climbing Toronto Center
Wed 06:23:32 AM 43.9500 -79.7333 270° West 130 150 4,000  Level Toronto Center
Wed 06:24:32 AM 43.9333 -79.7667 235° Southwest 140 161 4,000 50 Level Toronto Center
Wed 06:25:32 AM 43.9333 -79.8167 270° West 140 161 4,100 50 Climbing Toronto Center
Wed 06:26:32 AM 43.9167 -79.8833 251° West 140 161 4,100 -50 Level Toronto Center
Wed 06:27:32 AM 43.9000 -79.9333 245° Southwest 140 161 4,000  Descending Toronto Center
Wed 06:28:32 AM 43.8667 -79.9833 227° Southwest 140 161 4,100  Climbing Toronto Center
Wed 06:29:32 AM 43.8500 -80.0333 245° Southwest 140 161 4,000 -50 Descending Toronto Center
Wed 06:30:32 AM 43.8333 -80.0667 235° Southwest 140 161 4,000  Level Toronto Center
Wed 06:31:32 AM 43.8000 -80.1000 216° Southwest 140 161 4,000  Level Toronto Center
Wed 06:32:32 AM 43.7833 -80.1333 235° Southwest 140 161 4,000  Level Toronto Center
Wed 06:33:32 AM 43.7667 -80.1833 245° Southwest 140 161 4,000  Level Toronto Center
Wed 06:34:32 AM 43.7333 -80.2333 227° Southwest 140 161 4,000  Level Toronto Center
Wed 06:35:32 AM 43.7167 -80.2833 245° Southwest 140 161 4,000  Level Toronto Center
Wed 06:36:32 AM 43.6833 -80.3167 216° Southwest 150 173 4,000  Level Toronto Center
Wed 06:37:32 AM 43.6667 -80.3667 245° Southwest 140 161 4,000 250 Level Toronto Center
Wed 06:38:32 AM 43.6500 -80.4167 245° Southwest 140 161 4,500 496 Climbing Toronto Center
Wed 06:39:33 AM 43.6167 -80.4333 200° South 130 150 5,000 248 Climbing Toronto Center
Wed 06:40:33 AM 43.6000 -80.5000 251° West 150 173 5,000  Level Toronto Center
Wed 06:41:33 AM 43.5667 -80.5333 216° Southwest 150 173 5,000  Level Toronto Center
Wed 06:42:33 AM 43.5500 -80.5833 245° Southwest 150 173 5,000  Level Toronto Center
Wed 06:43:33 AM 43.5167 -80.6167 216° Southwest 150 173 5,000 -200 Level Toronto Center
Wed 06:44:33 AM 43.5000 -80.6667 245° Southwest 150 173 4,600 -400 Descending Toronto Center
Wed 06:45:33 AM 43.4667 -80.7167 227° Southwest 160 184 4,200 -300 Descending Toronto Center
Wed 06:46:33 AM 43.4333 -80.7833 235° Southwest 160 184 4,000 -100 Descending Toronto Center
Wed 06:47:33 AM 43.4000 -80.8333 227° Southwest 150 173 4,000  Level Toronto Center
Wed 06:48:33 AM 43.3833 -80.8667 235° Southwest 150 173 4,000  Level Toronto Center
Wed 06:49:33 AM 43.3500 -80.9000 216° Southwest 150 173 4,000  Level Toronto Center
Wed 06:50:33 AM 43.3000 -80.9167 194° South 160 184 4,000  Level Toronto Center
Wed 06:51:33 AM 43.2667 -80.9333 200° South 150 173 4,000 50 Level Toronto Center
Wed 06:52:33 AM 43.2333 -80.9833 228° Southwest 160 184 4,100  Climbing Toronto Center
Wed 06:53:33 AM 43.2000 -81.0000 200° South 160 184 4,000 -50 Descending Toronto Center
Wed 06:54:33 AM 43.1500 -81.0333 206° Southwest 160 184 4,000  Level Toronto Center
Wed 06:55:33 AM 43.1167 -81.0667 216° Southwest 160 184 4,000  Level Toronto Center
Wed 06:56:33 AM 43.0833 -81.1000 216° Southwest 160 184 4,000  Level Toronto Center
Wed 06:57:33 AM 43.0500 -81.1167 200° South 160 184 4,000  Level Toronto Center
Wed 06:58:33 AM 43.0000 -81.1667 216° Southwest 160 184 4,000 -50 Level Toronto Center
Wed 06:59:33 AM 42.9833 -81.2000 236° Southwest 150 173 3,900  Descending Toronto Center
Wed 07:00:33 AM 42.9500 -81.2500 228° Southwest 150 173 4,000 50 Climbing Toronto Center
Wed 07:01:33 AM 42.9167 -81.2667 200° South 160 184 4,000  Level Toronto Center
Wed 07:02:33 AM 42.8833 -81.3167 228° Southwest 150 173 4,000  Level Toronto Center
Wed 07:03:33 AM 42.8667 -81.3667 246° West 160 184 4,000  Level Toronto Center
Wed 07:04:24 AM 42.8428 -81.4100 233° Southwest 155 178 4,000  Level Cleveland Center
Wed 07:05:24 AM 42.8153 -81.4492 226° Southwest 155 178 4,000  Level Cleveland Center
Wed 07:06:24 AM 42.7797 -81.4939 223° Southwest 160 184 4,000  Level Cleveland Center
Wed 07:07:24 AM 42.7458 -81.5331 220° Southwest 160 184 4,000 -50 Level Cleveland Center
Wed 07:08:24 AM 42.7122 -81.5750 223° Southwest 160 184 3,900 -50 Descending Cleveland Center
Wed 07:09:24 AM 42.6786 -81.6083 216° Southwest 160 184 3,900 -200 Level Cleveland Center
Wed 07:10:24 AM 42.6450 -81.6531 224° Southwest 160 184 3,500 -300 Descending Cleveland Center
Wed 07:11:24 AM 42.6092 -81.6947 221° Southwest 165 190 3,300 -150 Descending Cleveland Center
Wed 07:12:24 AM 42.5733 -81.7250 212° Southwest 160 184 3,200 -50 Descending Cleveland Center
Wed 07:13:24 AM 42.5458 -81.7697 230° Southwest 160 184 3,200 50 Level Cleveland Center
Wed 07:14:24 AM 42.5119 -81.8083 220° Southwest 160 184 3,300 50 Climbing Cleveland Center
Wed 07:15:24 AM 42.4825 -81.8472 224° Southwest 160 184 3,300  Level Cleveland Center
Wed 07:16:24 AM 42.4467 -81.8858 218° Southwest 160 184 3,300  Level Cleveland Center
Wed 07:17:24 AM 42.4150 -81.9219 220° Southwest 160 184 3,300 50 Level Cleveland Center
Wed 07:18:24 AM 42.3853 -81.9633 226° Southwest 155 178 3,400 50 Climbing Cleveland Center
Wed 07:19:24 AM 42.3575 -82.0050 228° Southwest 150 173 3,400  Level Cleveland Center
Wed 07:20:24 AM 42.3278 -82.0547 231° Southwest 156 180 3,400 -100 Level Cleveland Center
Wed 07:21:24 AM 42.3358 -82.0886 288° West 113 130 3,200 -350 Descending Cleveland Center
Wed 07:22:24 AM 42.3822 -82.0364 40° Northeast 54 62 2,700 -350 Descending Cleveland Center
Wed 07:23:24 AM 42.4161 -81.9894 46° Northeast 105 121 2,500 -200 Descending Cleveland Center
Wed 07:24:24 AM 42.4250 -81.9389 77° East 110 127 2,300 -150 Descending Cleveland Center
Wed 07:25:24 AM 42.3958 -81.9525 199° South 43 49 2,200 -200 Descending Cleveland Center
Wed 07:26:24 AM 42.3744 -81.9856 229° Southwest 81 93 1,900 -300 Descending Cleveland Center
Wed 07:27:24 AM 42.3594 -82.0192 239° Southwest 104 120 1,600 -200 Descending Cleveland Center
Wed 07:28:24 AM 42.3406 -82.0411 221° Southwest 104 120 1,500 850 Descending Cleveland Center
Wed 07:29:24 AM 42.3192 -82.0686 224° Southwest 104 120 3,300 900 Climbing Cleveland Center
Wed 07:30:24 AM 42.2981 -82.0964 224° Southwest 104 120 3,300  Level Cleveland Center
Wed 07:31:24 AM 42.2769 -82.1239 224° Southwest 104 120 3,300  Level Cleveland Center
Wed 07:32:24 AM 42.2683 -82.1347 223° Southwest 104 120 3,300  Level Cleveland Center
Wed 07:34:24 AM 42.2683 -82.1347 334° Northwest 104 120 3,300  Level Cleveland Center
Wed 07:36:24 AM 42.2683 -82.1347 334° Northwest 104 120 3,300  Level Cleveland Center

Login

Don't have an account? Register now (free) for customized features, flight alerts, and more!